sensor_id;sensor_type;location;lat;lon;timestamp;noise_LAeq;noise_LA_min;noise_LA_max;noise_LA01;noise_LA95
80580;Laerm;69939;52.402;6.608;2024-02-04T00:02:10;65.83;42.37;78.85;;
80580;Laerm;69939;52.402;6.608;2024-02-04T00:04:40;63.90;44.98;78.05;;
80580;Laerm;69939;52.402;6.608;2024-02-04T00:07:10;63.82;43.74;84.35;;
80580;Laerm;69939;52.402;6.608;2024-02-04T00:09:39;63.50;39.73;75.36;;
80580;Laerm;69939;52.402;6.608;2024-02-04T00:12:12;64.88;40.72;78.69;;
80580;Laerm;69939;52.402;6.608;2024-02-04T00:14:43;69.50;44.22;87.79;;
80580;Laerm;69939;52.402;6.608;2024-02-04T00:17:13;63.17;38.66;78.64;;
80580;Laerm;69939;52.402;6.608;2024-02-04T00:19:44;64.83;41.56;75.66;;
80580;Laerm;69939;52.402;6.608;2024-02-04T00:22:14;65.81;38.08;83.16;;
80580;Laerm;69939;52.402;6.608;2024-02-04T00:24:46;59.34;36.35;73.71;;
80580;Laerm;69939;52.402;6.608;2024-02-04T00:27:18;64.57;42.07;76.18;;
80580;Laerm;69939;52.402;6.608;2024-02-04T00:29:47;60.40;37.04;74.92;;
80580;Laerm;69939;52.402;6.608;2024-02-04T00:32:16;60.46;36.31;76.04;;
80580;Laerm;69939;52.402;6.608;2024-02-04T00:34:46;60.00;38.84;72.13;;
80580;Laerm;69939;52.402;6.608;2024-02-04T00:37:16;48.51;34.96;66.69;;
80580;Laerm;69939;52.402;6.608;2024-02-04T00:39:45;58.39;35.47;74.53;;
80580;Laerm;69939;52.402;6.608;2024-02-04T00:42:17;60.03;35.50;73.19;;
80580;Laerm;69939;52.402;6.608;2024-02-04T00:44:47;56.23;34.72;73.13;;
80580;Laerm;69939;52.402;6.608;2024-02-04T00:47:16;60.07;34.92;77.23;;
80580;Laerm;69939;52.402;6.608;2024-02-04T00:49:46;55.70;34.38;70.24;;
80580;Laerm;69939;52.402;6.608;2024-02-04T00:52:16;58.48;34.29;74.68;;
80580;Laerm;69939;52.402;6.608;2024-02-04T00:54:45;49.89;33.89;65.12;;
80580;Laerm;69939;52.402;6.608;2024-02-04T00:57:17;40.08;33.01;59.39;;
80580;Laerm;69939;52.402;6.608;2024-02-04T00:59:48;51.68;34.55;67.44;;
80580;Laerm;69939;52.402;6.608;2024-02-04T01:02:18;52.92;34.57;70.68;;
80580;Laerm;69939;52.402;6.608;2024-02-04T01:04:48;56.17;34.27;70.65;;
80580;Laerm;69939;52.402;6.608;2024-02-04T01:07:18;55.67;34.30;70.11;;
80580;Laerm;69939;52.402;6.608;2024-02-04T01:09:47;60.21;34.06;74.64;;
80580;Laerm;69939;52.402;6.608;2024-02-04T01:12:20;40.93;33.47;57.41;;
80580;Laerm;69939;52.402;6.608;2024-02-04T01:14:49;58.40;33.71;75.00;;
80580;Laerm;69939;52.402;6.608;2024-02-04T01:17:21;39.77;32.95;59.67;;
80580;Laerm;69939;52.402;6.608;2024-02-04T01:19:51;55.00;32.80;71.72;;
80580;Laerm;69939;52.402;6.608;2024-02-04T01:22:20;60.30;34.09;74.59;;
80580;Laerm;69939;52.402;6.608;2024-02-04T01:24:52;56.98;36.60;70.74;;
80580;Laerm;69939;52.402;6.608;2024-02-04T01:27:24;63.16;37.25;75.84;;
80580;Laerm;69939;52.402;6.608;2024-02-04T01:29:54;59.65;34.75;76.20;;
80580;Laerm;69939;52.402;6.608;2024-02-04T01:32:24;61.88;36.91;74.97;;
80580;Laerm;69939;52.402;6.608;2024-02-04T01:34:53;65.61;38.85;80.39;;
80580;Laerm;69939;52.402;6.608;2024-02-04T01:37:23;64.79;35.89;81.91;;
80580;Laerm;69939;52.402;6.608;2024-02-04T01:39:52;65.60;35.36;78.99;;
80580;Laerm;69939;52.402;6.608;2024-02-04T01:42:27;62.14;35.42;80.70;;
80580;Laerm;69939;52.402;6.608;2024-02-04T01:44:57;57.48;35.52;73.81;;
80580;Laerm;69939;52.402;6.608;2024-02-04T01:47:27;59.29;33.83;72.32;;
80580;Laerm;69939;52.402;6.608;2024-02-04T01:49:56;47.10;33.33;64.38;;
80580;Laerm;69939;52.402;6.608;2024-02-04T01:52:27;53.35;34.47;69.10;;
80580;Laerm;69939;52.402;6.608;2024-02-04T01:54:59;55.62;34.30;69.87;;
80580;Laerm;69939;52.402;6.608;2024-02-04T01:57:34;52.54;33.14;68.81;;
80580;Laerm;69939;52.402;6.608;2024-02-04T02:00:06;61.97;33.87;77.03;;
80580;Laerm;69939;52.402;6.608;2024-02-04T02:02:41;58.31;33.98;75.67;;
80580;Laerm;69939;52.402;6.608;2024-02-04T02:05:12;57.24;34.02;75.08;;
80580;Laerm;69939;52.402;6.608;2024-02-04T02:07:41;52.08;34.41;68.69;;
80580;Laerm;69939;52.402;6.608;2024-02-04T02:10:15;56.73;33.82;77.76;;
80580;Laerm;69939;52.402;6.608;2024-02-04T02:12:54;40.91;32.98;58.96;;
80580;Laerm;69939;52.402;6.608;2024-02-04T02:15:34;42.55;32.87;59.46;;
80580;Laerm;69939;52.402;6.608;2024-02-04T02:18:14;42.04;33.21;65.93;;
80580;Laerm;69939;52.402;6.608;2024-02-04T02:21:10;56.00;33.54;72.19;;
80580;Laerm;69939;52.402;6.608;2024-02-04T02:23:53;67.74;34.47;82.61;;
80580;Laerm;69939;52.402;6.608;2024-02-04T02:26:32;66.78;36.16;90.31;;
80580;Laerm;69939;52.402;6.608;2024-02-04T02:29:05;59.85;35.81;75.15;;
80580;Laerm;69939;52.402;6.608;2024-02-04T02:31:35;67.17;37.14;82.71;;
80580;Laerm;69939;52.402;6.608;2024-02-04T02:34:11;70.37;36.08;87.93;;
80580;Laerm;69939;52.402;6.608;2024-02-04T02:36:45;61.69;35.68;76.30;;
80580;Laerm;69939;52.402;6.608;2024-02-04T02:39:18;61.96;34.90;77.02;;
80580;Laerm;69939;52.402;6.608;2024-02-04T02:41:50;46.90;33.60;63.75;;
80580;Laerm;69939;52.402;6.608;2024-02-04T02:44:27;64.20;34.25;85.08;;
80580;Laerm;69939;52.402;6.608;2024-02-04T02:47:00;60.90;37.97;73.79;;
80580;Laerm;69939;52.402;6.608;2024-02-04T02:49:36;59.69;35.89;77.03;;
80580;Laerm;69939;52.402;6.608;2024-02-04T02:52:07;63.74;39.73;80.75;;
80580;Laerm;69939;52.402;6.608;2024-02-04T02:54:36;58.79;35.47;76.29;;
80580;Laerm;69939;52.402;6.608;2024-02-04T02:57:08;58.25;34.99;74.45;;
80580;Laerm;69939;52.402;6.608;2024-02-04T02:59:38;66.90;37.58;82.01;;
80580;Laerm;69939;52.402;6.608;2024-02-04T03:02:07;66.58;35.75;81.08;;
80580;Laerm;69939;52.402;6.608;2024-02-04T03:04:39;64.91;36.89;79.73;;
80580;Laerm;69939;52.402;6.608;2024-02-04T03:07:10;66.57;37.69;85.14;;
80580;Laerm;69939;52.402;6.608;2024-02-04T03:09:40;80.39;37.30;100.04;;
80580;Laerm;69939;52.402;6.608;2024-02-04T03:12:10;64.93;38.11;82.06;;
80580;Laerm;69939;52.402;6.608;2024-02-04T03:14:47;69.25;37.29;83.53;;
80580;Laerm;69939;52.402;6.608;2024-02-04T03:17:16;62.98;35.35;80.94;;
80580;Laerm;69939;52.402;6.608;2024-02-04T03:19:50;62.63;35.76;77.66;;
80580;Laerm;69939;52.402;6.608;2024-02-04T03:22:21;61.69;39.10;77.94;;
80580;Laerm;69939;52.402;6.608;2024-02-04T03:24:50;61.78;34.63;76.75;;
80580;Laerm;69939;52.402;6.608;2024-02-04T03:27:21;57.17;35.45;71.48;;
80580;Laerm;69939;52.402;6.608;2024-02-04T03:29:50;61.13;35.65;77.43;;
80580;Laerm;69939;52.402;6.608;2024-02-04T03:32:19;63.65;38.55;78.80;;
80580;Laerm;69939;52.402;6.608;2024-02-04T03:34:52;66.74;37.26;83.00;;
80580;Laerm;69939;52.402;6.608;2024-02-04T03:37:21;71.95;44.10;89.24;;
80580;Laerm;69939;52.402;6.608;2024-02-04T03:39:50;63.63;36.57;81.85;;
80580;Laerm;69939;52.402;6.608;2024-02-04T03:42:20;61.72;35.01;83.24;;
80580;Laerm;69939;52.402;6.608;2024-02-04T03:44:57;62.74;33.87;84.68;;
80580;Laerm;69939;52.402;6.608;2024-02-04T03:47:27;63.62;36.10;80.94;;
80580;Laerm;69939;52.402;6.608;2024-02-04T03:49:57;63.01;34.70;79.90;;
80580;Laerm;69939;52.402;6.608;2024-02-04T03:52:26;72.19;37.65;92.30;;
80580;Laerm;69939;52.402;6.608;2024-02-04T03:54:56;65.26;34.87;79.58;;
80580;Laerm;69939;52.402;6.608;2024-02-04T03:57:25;66.36;37.16;81.70;;
80580;Laerm;69939;52.402;6.608;2024-02-04T04:00:04;62.64;36.20;80.59;;
80580;Laerm;69939;52.402;6.608;2024-02-04T04:02:33;68.86;38.90;85.87;;
80580;Laerm;69939;52.402;6.608;2024-02-04T04:05:14;68.49;36.90;87.55;;
80580;Laerm;69939;52.402;6.608;2024-02-04T04:07:46;70.53;45.03;85.82;;
80580;Laerm;69939;52.402;6.608;2024-02-04T04:10:16;72.37;38.25;89.88;;
80580;Laerm;69939;52.402;6.608;2024-02-04T04:12:47;69.47;37.85;88.17;;
80580;Laerm;69939;52.402;6.608;2024-02-04T04:15:18;67.01;40.65;79.69;;
80580;Laerm;69939;52.402;6.608;2024-02-04T04:17:48;66.55;37.72;81.00;;
80580;Laerm;69939;52.402;6.608;2024-02-04T04:20:20;73.06;48.09;86.37;;
80580;Laerm;69939;52.402;6.608;2024-02-04T04:22:49;67.71;40.05;82.36;;
80580;Laerm;69939;52.402;6.608;2024-02-04T04:25:19;65.06;34.33;83.66;;
80580;Laerm;69939;52.402;6.608;2024-02-04T04:27:48;65.97;35.39;82.66;;
80580;Laerm;69939;52.402;6.608;2024-02-04T04:30:17;66.00;37.62;81.65;;
80580;Laerm;69939;52.402;6.608;2024-02-04T04:32:47;65.19;37.26;79.99;;
80580;Laerm;69939;52.402;6.608;2024-02-04T04:35:20;64.62;34.95;78.47;;
80580;Laerm;69939;52.402;6.608;2024-02-04T04:37:49;62.17;34.53;80.62;;
80580;Laerm;69939;52.402;6.608;2024-02-04T04:40:19;70.49;35.84;87.42;;
80580;Laerm;69939;52.402;6.608;2024-02-04T04:42:49;57.36;34.06;72.53;;
80580;Laerm;69939;52.402;6.608;2024-02-04T04:45:19;61.79;34.95;75.99;;
80580;Laerm;69939;52.402;6.608;2024-02-04T04:47:49;61.95;35.69;79.81;;
80580;Laerm;69939;52.402;6.608;2024-02-04T04:50:21;62.48;35.23;77.24;;
80580;Laerm;69939;52.402;6.608;2024-02-04T04:52:53;67.43;36.86;83.34;;
80580;Laerm;69939;52.402;6.608;2024-02-04T04:55:23;64.16;34.71;80.10;;
80580;Laerm;69939;52.402;6.608;2024-02-04T04:57:53;60.39;34.91;78.60;;
80580;Laerm;69939;52.402;6.608;2024-02-04T05:00:24;64.56;38.61;82.69;;
80580;Laerm;69939;52.402;6.608;2024-02-04T05:02:54;63.97;35.70;82.57;;
80580;Laerm;69939;52.402;6.608;2024-02-04T05:05:26;69.65;35.32;87.65;;
80580;Laerm;69939;52.402;6.608;2024-02-04T05:07:56;65.12;36.39;82.45;;
80580;Laerm;69939;52.402;6.608;2024-02-04T05:10:25;63.53;36.84;81.13;;
80580;Laerm;69939;52.402;6.608;2024-02-04T05:12:55;59.07;34.23;77.46;;
80580;Laerm;69939;52.402;6.608;2024-02-04T05:15:24;68.16;36.31;82.08;;
80580;Laerm;69939;52.402;6.608;2024-02-04T05:17:55;66.12;36.29;81.46;;
80580;Laerm;69939;52.402;6.608;2024-02-04T05:20:27;57.16;35.34;71.98;;
80580;Laerm;69939;52.402;6.608;2024-02-04T05:22:59;69.33;42.73;86.49;;
80580;Laerm;69939;52.402;6.608;2024-02-04T05:25:28;59.42;34.55;72.08;;
80580;Laerm;69939;52.402;6.608;2024-02-04T05:27:58;65.64;38.59;85.98;;
80580;Laerm;69939;52.402;6.608;2024-02-04T05:30:27;61.13;35.45;75.50;;
80580;Laerm;69939;52.402;6.608;2024-02-04T05:32:59;66.58;36.73;86.12;;
80580;Laerm;69939;52.402;6.608;2024-02-04T05:35:32;69.79;42.93;87.57;;
80580;Laerm;69939;52.402;6.608;2024-02-04T05:38:03;67.63;36.79;83.68;;
80580;Laerm;69939;52.402;6.608;2024-02-04T05:40:33;67.58;38.57;81.72;;
80580;Laerm;69939;52.402;6.608;2024-02-04T05:43:03;68.26;36.36;84.76;;
80580;Laerm;69939;52.402;6.608;2024-02-04T05:45:38;68.74;41.49;84.03;;
80580;Laerm;69939;52.402;6.608;2024-02-04T05:48:08;69.94;44.04;84.65;;
80580;Laerm;69939;52.402;6.608;2024-02-04T05:50:40;60.09;37.06;78.47;;
80580;Laerm;69939;52.402;6.608;2024-02-04T05:53:09;67.88;36.76;88.75;;
80580;Laerm;69939;52.402;6.608;2024-02-04T05:55:39;66.89;40.01;83.13;;
80580;Laerm;69939;52.402;6.608;2024-02-04T05:58:15;65.88;41.86;82.37;;
80580;Laerm;69939;52.402;6.608;2024-02-04T06:00:44;65.26;39.82;85.38;;
80580;Laerm;69939;52.402;6.608;2024-02-04T06:03:13;70.66;37.64;86.26;;
80580;Laerm;69939;52.402;6.608;2024-02-04T06:05:43;68.83;42.97;85.49;;
80580;Laerm;69939;52.402;6.608;2024-02-04T06:08:13;71.68;41.55;90.98;;
80580;Laerm;69939;52.402;6.608;2024-02-04T06:10:42;70.41;40.82;84.96;;
80580;Laerm;69939;52.402;6.608;2024-02-04T06:13:17;75.10;48.33;91.55;;
80580;Laerm;69939;52.402;6.608;2024-02-04T06:15:46;73.29;37.86;89.74;;
80580;Laerm;69939;52.402;6.608;2024-02-04T06:18:16;68.47;40.51;86.92;;
80580;Laerm;69939;52.402;6.608;2024-02-04T06:20:45;70.89;38.26;88.06;;
80580;Laerm;69939;52.402;6.608;2024-02-04T06:23:14;64.71;40.16;77.70;;
80580;Laerm;69939;52.402;6.608;2024-02-04T06:25:45;75.83;42.93;93.01;;
80580;Laerm;69939;52.402;6.608;2024-02-04T06:28:18;61.04;37.14;79.27;;
80580;Laerm;69939;52.402;6.608;2024-02-04T06:30:49;72.59;37.60;87.38;;
80580;Laerm;69939;52.402;6.608;2024-02-04T06:33:24;71.52;39.53;87.83;;
80580;Laerm;69939;52.402;6.608;2024-02-04T06:35:54;65.25;41.36;86.17;;
80580;Laerm;69939;52.402;6.608;2024-02-04T06:38:23;71.85;41.24;90.54;;
80580;Laerm;69939;52.402;6.608;2024-02-04T06:40:53;73.34;40.92;88.54;;
80580;Laerm;69939;52.402;6.608;2024-02-04T06:43:22;74.49;40.36;90.02;;
80580;Laerm;69939;52.402;6.608;2024-02-04T06:45:52;63.29;38.02;79.78;;
80580;Laerm;69939;52.402;6.608;2024-02-04T06:48:23;68.64;39.88;83.80;;
80580;Laerm;69939;52.402;6.608;2024-02-04T06:50:53;66.24;41.81;82.20;;
80580;Laerm;69939;52.402;6.608;2024-02-04T06:53:28;69.00;43.88;87.10;;
80580;Laerm;69939;52.402;6.608;2024-02-04T06:55:58;69.84;37.53;90.37;;
80580;Laerm;69939;52.402;6.608;2024-02-04T06:58:27;69.52;35.93;86.64;;
80580;Laerm;69939;52.402;6.608;2024-02-04T07:01:00;65.10;40.77;84.44;;
80580;Laerm;69939;52.402;6.608;2024-02-04T07:03:32;72.11;39.20;88.29;;
80580;Laerm;69939;52.402;6.608;2024-02-04T07:06:02;62.86;36.58;76.43;;
80580;Laerm;69939;52.402;6.608;2024-02-04T07:08:34;62.57;37.71;79.78;;
80580;Laerm;69939;52.402;6.608;2024-02-04T07:11:12;70.67;41.51;84.98;;
80580;Laerm;69939;52.402;6.608;2024-02-04T07:13:44;63.23;40.31;78.66;;
80580;Laerm;69939;52.402;6.608;2024-02-04T07:16:14;65.08;42.26;81.44;;
80580;Laerm;69939;52.402;6.608;2024-02-04T07:18:44;67.16;44.83;83.98;;
80580;Laerm;69939;52.402;6.608;2024-02-04T07:21:14;64.49;40.78;76.21;;
80580;Laerm;69939;52.402;6.608;2024-02-04T07:23:43;65.55;37.96;80.77;;
80580;Laerm;69939;52.402;6.608;2024-02-04T07:26:15;59.92;37.61;75.37;;
80580;Laerm;69939;52.402;6.608;2024-02-04T07:28:45;59.95;42.47;74.60;;
80580;Laerm;69939;52.402;6.608;2024-02-04T07:31:15;61.36;36.38;76.13;;
80580;Laerm;69939;52.402;6.608;2024-02-04T07:33:44;63.62;36.62;78.54;;
80580;Laerm;69939;52.402;6.608;2024-02-04T07:36:21;65.72;42.25;82.37;;
80580;Laerm;69939;52.402;6.608;2024-02-04T07:38:51;63.89;39.94;82.99;;
80580;Laerm;69939;52.402;6.608;2024-02-04T07:41:20;70.38;41.90;86.63;;
80580;Laerm;69939;52.402;6.608;2024-02-04T07:43:50;69.67;44.39;85.03;;
80580;Laerm;69939;52.402;6.608;2024-02-04T07:46:19;66.22;42.02;82.40;;
80580;Laerm;69939;52.402;6.608;2024-02-04T07:48:49;66.51;44.86;79.21;;
80580;Laerm;69939;52.402;6.608;2024-02-04T07:51:24;66.43;41.87;82.59;;
80580;Laerm;69939;52.402;6.608;2024-02-04T07:53:53;66.82;45.07;84.05;;
80580;Laerm;69939;52.402;6.608;2024-02-04T07:56:28;65.04;39.79;80.88;;
80580;Laerm;69939;52.402;6.608;2024-02-04T07:58:58;67.93;43.13;84.75;;
80580;Laerm;69939;52.402;6.608;2024-02-04T08:01:30;73.28;47.00;86.12;;
80580;Laerm;69939;52.402;6.608;2024-02-04T08:04:00;73.43;50.39;89.69;;
80580;Laerm;69939;52.402;6.608;2024-02-04T08:06:29;66.26;48.46;79.49;;
80580;Laerm;69939;52.402;6.608;2024-02-04T08:09:00;70.28;42.76;87.55;;
80580;Laerm;69939;52.402;6.608;2024-02-04T08:11:33;73.35;47.10;91.80;;
80580;Laerm;69939;52.402;6.608;2024-02-04T08:14:02;69.82;49.71;82.21;;
80580;Laerm;69939;52.402;6.608;2024-02-04T08:16:32;75.28;50.14;90.49;;
80580;Laerm;69939;52.402;6.608;2024-02-04T08:19:01;75.77;55.36;91.42;;
80580;Laerm;69939;52.402;6.608;2024-02-04T08:21:32;69.64;49.38;81.38;;
80580;Laerm;69939;52.402;6.608;2024-02-04T08:24:02;76.95;51.80;93.42;;
80580;Laerm;69939;52.402;6.608;2024-02-04T08:26:37;73.33;46.41;89.56;;
80580;Laerm;69939;52.402;6.608;2024-02-04T08:29:06;79.02;47.72;95.32;;
80580;Laerm;69939;52.402;6.608;2024-02-04T08:31:37;78.89;52.40;94.58;;
80580;Laerm;69939;52.402;6.608;2024-02-04T08:34:07;78.73;43.57;94.16;;
80580;Laerm;69939;52.402;6.608;2024-02-04T08:36:37;76.20;51.86;93.01;;
80580;Laerm;69939;52.402;6.608;2024-02-04T08:39:07;78.00;46.93;95.46;;
80580;Laerm;69939;52.402;6.608;2024-02-04T08:41:39;76.72;52.28;90.49;;
80580;Laerm;69939;52.402;6.608;2024-02-04T08:44:09;78.56;52.31;94.04;;
80580;Laerm;69939;52.402;6.608;2024-02-04T08:46:38;70.42;49.40;87.49;;
80580;Laerm;69939;52.402;6.608;2024-02-04T08:49:07;79.30;44.96;93.86;;
80580;Laerm;69939;52.402;6.608;2024-02-04T08:51:37;78.69;50.20;92.88;;
80580;Laerm;69939;52.402;6.608;2024-02-04T08:54:06;75.42;48.16;90.35;;
80580;Laerm;69939;52.402;6.608;2024-02-04T08:56:40;73.13;47.48;90.42;;
80580;Laerm;69939;52.402;6.608;2024-02-04T08:59:12;74.91;44.88;94.07;;
80580;Laerm;69939;52.402;6.608;2024-02-04T09:01:44;69.34;45.79;83.79;;
80580;Laerm;69939;52.402;6.608;2024-02-04T09:04:13;75.53;46.99;91.10;;
80580;Laerm;69939;52.402;6.608;2024-02-04T09:06:43;63.85;43.19;77.08;;
80580;Laerm;69939;52.402;6.608;2024-02-04T09:09:12;70.61;46.83;87.11;;
80580;Laerm;69939;52.402;6.608;2024-02-04T09:11:45;68.53;44.52;86.93;;
80580;Laerm;69939;52.402;6.608;2024-02-04T09:14:14;72.22;50.56;89.52;;
80580;Laerm;69939;52.402;6.608;2024-02-04T09:16:43;67.22;40.22;84.89;;
80580;Laerm;69939;52.402;6.608;2024-02-04T09:19:13;71.29;42.84;87.27;;
80580;Laerm;69939;52.402;6.608;2024-02-04T09:21:43;67.53;50.05;83.09;;
80580;Laerm;69939;52.402;6.608;2024-02-04T09:24:12;69.18;41.03;85.92;;
80580;Laerm;69939;52.402;6.608;2024-02-04T09:26:48;70.95;44.32;84.51;;
80580;Laerm;69939;52.402;6.608;2024-02-04T09:29:23;69.75;45.08;91.06;;
80580;Laerm;69939;52.402;6.608;2024-02-04T09:31:53;69.59;46.94;85.64;;
80580;Laerm;69939;52.402;6.608;2024-02-04T09:34:22;66.75;46.06;78.45;;
80580;Laerm;69939;52.402;6.608;2024-02-04T09:36:51;65.41;44.24;78.07;;
80580;Laerm;69939;52.402;6.608;2024-02-04T09:39:21;65.22;43.78;79.68;;
80580;Laerm;69939;52.402;6.608;2024-02-04T09:41:50;68.23;48.24;81.33;;
80580;Laerm;69939;52.402;6.608;2024-02-04T09:44:23;66.72;41.94;78.16;;
80580;Laerm;69939;52.402;6.608;2024-02-04T09:46:53;72.79;47.70;88.09;;
80580;Laerm;69939;52.402;6.608;2024-02-04T09:49:32;71.69;47.18;90.74;;
80580;Laerm;69939;52.402;6.608;2024-02-04T09:52:07;69.65;44.10;86.26;;
80580;Laerm;69939;52.402;6.608;2024-02-04T09:54:44;66.56;42.98;85.66;;
80580;Laerm;69939;52.402;6.608;2024-02-04T09:57:14;70.31;46.15;86.95;;
80580;Laerm;69939;52.402;6.608;2024-02-04T09:59:45;71.29;48.20;85.52;;
80580;Laerm;69939;52.402;6.608;2024-02-04T10:02:15;71.14;49.77;88.52;;
80580;Laerm;69939;52.402;6.608;2024-02-04T10:04:50;66.50;47.55;82.90;;
80580;Laerm;69939;52.402;6.608;2024-02-04T10:07:19;72.63;50.74;85.76;;
80580;Laerm;69939;52.402;6.608;2024-02-04T10:09:50;67.48;42.18;83.12;;
80580;Laerm;69939;52.402;6.608;2024-02-04T10:12:20;70.45;47.42;87.34;;
80580;Laerm;69939;52.402;6.608;2024-02-04T10:14:49;64.38;44.40;75.54;;
80580;Laerm;69939;52.402;6.608;2024-02-04T10:17:20;65.86;43.42;82.21;;
80580;Laerm;69939;52.402;6.608;2024-02-04T10:19:52;63.82;40.74;75.68;;
80580;Laerm;69939;52.402;6.608;2024-02-04T10:22:21;70.14;51.81;86.73;;
80580;Laerm;69939;52.402;6.608;2024-02-04T10:24:50;63.88;42.69;73.72;;
80580;Laerm;69939;52.402;6.608;2024-02-04T10:27:20;65.78;49.09;76.83;;
80580;Laerm;69939;52.402;6.608;2024-02-04T10:29:49;65.83;46.73;75.08;;
80580;Laerm;69939;52.402;6.608;2024-02-04T10:32:22;66.29;45.05;79.20;;
80580;Laerm;69939;52.402;6.608;2024-02-04T10:34:54;63.73;41.05;76.27;;
80580;Laerm;69939;52.402;6.608;2024-02-04T10:37:29;64.94;47.83;76.08;;
80580;Laerm;69939;52.402;6.608;2024-02-04T10:39:59;66.49;42.93;78.37;;
80580;Laerm;69939;52.402;6.608;2024-02-04T10:42:29;65.00;42.82;73.68;;
80580;Laerm;69939;52.402;6.608;2024-02-04T10:45:02;66.54;48.08;84.13;;
80580;Laerm;69939;52.402;6.608;2024-02-04T10:47:37;64.79;46.75;78.49;;
80580;Laerm;69939;52.402;6.608;2024-02-04T10:50:15;63.50;45.82;72.46;;
80580;Laerm;69939;52.402;6.608;2024-02-04T10:52:48;65.16;44.02;76.46;;
80580;Laerm;69939;52.402;6.608;2024-02-04T10:55:29;64.32;45.59;78.05;;
80580;Laerm;69939;52.402;6.608;2024-02-04T10:58:00;67.14;44.30;82.86;;
80580;Laerm;69939;52.402;6.608;2024-02-04T11:00:31;69.95;48.22;83.22;;
80580;Laerm;69939;52.402;6.608;2024-02-04T11:03:02;64.95;46.04;79.26;;
80580;Laerm;69939;52.402;6.608;2024-02-04T11:05:36;65.31;46.40;80.56;;
80580;Laerm;69939;52.402;6.608;2024-02-04T11:08:06;65.62;45.98;74.48;;
80580;Laerm;69939;52.402;6.608;2024-02-04T11:10:40;66.98;50.25;78.74;;
80580;Laerm;69939;52.402;6.608;2024-02-04T11:13:11;70.09;48.55;88.70;;
80580;Laerm;69939;52.402;6.608;2024-02-04T11:15:43;70.20;51.11;86.24;;
80580;Laerm;69939;52.402;6.608;2024-02-04T11:18:49;74.79;51.93;92.18;;
80580;Laerm;69939;52.402;6.608;2024-02-04T11:21:48;65.53;48.15;78.46;;
80580;Laerm;69939;52.402;6.608;2024-02-04T11:24:45;72.97;45.98;90.60;;
80580;Laerm;69939;52.402;6.608;2024-02-04T11:27:25;69.35;47.07;83.30;;
80580;Laerm;69939;52.402;6.608;2024-02-04T11:29:55;69.89;48.33;85.30;;
80580;Laerm;69939;52.402;6.608;2024-02-04T11:32:25;67.41;46.98;80.44;;
80580;Laerm;69939;52.402;6.608;2024-02-04T11:35:00;76.85;54.77;94.26;;
80580;Laerm;69939;52.402;6.608;2024-02-04T11:37:34;75.09;46.12;96.01;;
80580;Laerm;69939;52.402;6.608;2024-02-04T11:40:05;82.45;49.80;99.03;;
80580;Laerm;69939;52.402;6.608;2024-02-04T11:42:34;75.14;49.13;89.43;;
80580;Laerm;69939;52.402;6.608;2024-02-04T11:45:08;73.07;48.91;88.95;;
80580;Laerm;69939;52.402;6.608;2024-02-04T11:47:38;72.24;50.48;90.72;;
80580;Laerm;69939;52.402;6.608;2024-02-04T11:50:11;68.84;49.34;83.38;;
80580;Laerm;69939;52.402;6.608;2024-02-04T11:52:41;79.48;52.95;95.82;;
80580;Laerm;69939;52.402;6.608;2024-02-04T11:55:14;75.90;50.98;93.16;;
80580;Laerm;69939;52.402;6.608;2024-02-04T11:57:44;76.48;47.08;91.42;;
80580;Laerm;69939;52.402;6.608;2024-02-04T12:00:18;73.04;50.06;90.05;;
80580;Laerm;69939;52.402;6.608;2024-02-04T12:02:47;72.70;46.56;86.80;;
80580;Laerm;69939;52.402;6.608;2024-02-04T12:05:22;72.77;48.70;85.91;;
80580;Laerm;69939;52.402;6.608;2024-02-04T12:07:52;79.24;54.34;95.80;;
80580;Laerm;69939;52.402;6.608;2024-02-04T12:10:22;74.00;49.86;91.83;;
80580;Laerm;69939;52.402;6.608;2024-02-04T12:12:53;78.43;49.29;93.76;;
80580;Laerm;69939;52.402;6.608;2024-02-04T12:15:23;71.84;53.76;89.00;;
80580;Laerm;69939;52.402;6.608;2024-02-04T12:17:52;74.27;50.30;93.41;;
80580;Laerm;69939;52.402;6.608;2024-02-04T12:20:24;74.17;46.62;88.86;;
80580;Laerm;69939;52.402;6.608;2024-02-04T12:22:54;71.30;48.39;87.56;;
80580;Laerm;69939;52.402;6.608;2024-02-04T12:25:24;73.66;49.77;90.09;;
80580;Laerm;69939;52.402;6.608;2024-02-04T12:27:55;72.73;45.47;90.73;;
80580;Laerm;69939;52.402;6.608;2024-02-04T12:30:26;72.43;46.27;87.88;;
80580;Laerm;69939;52.402;6.608;2024-02-04T12:32:57;67.24;45.64;82.87;;
80580;Laerm;69939;52.402;6.608;2024-02-04T12:35:29;70.25;50.25;82.80;;
80580;Laerm;69939;52.402;6.608;2024-02-04T12:38:00;78.29;57.26;98.25;;
80580;Laerm;69939;52.402;6.608;2024-02-04T12:40:31;79.11;51.99;95.05;;
80580;Laerm;69939;52.402;6.608;2024-02-04T12:43:02;71.91;49.88;88.92;;
80580;Laerm;69939;52.402;6.608;2024-02-04T12:45:31;73.81;48.10;92.87;;
80580;Laerm;69939;52.402;6.608;2024-02-04T12:48:02;71.49;49.51;85.34;;
80580;Laerm;69939;52.402;6.608;2024-02-04T12:50:37;72.88;48.23;86.43;;
80580;Laerm;69939;52.402;6.608;2024-02-04T12:53:09;67.59;45.16;87.15;;
80580;Laerm;69939;52.402;6.608;2024-02-04T12:55:39;68.39;47.81;81.02;;
80580;Laerm;69939;52.402;6.608;2024-02-04T12:58:11;69.65;47.91;82.95;;
80580;Laerm;69939;52.402;6.608;2024-02-04T13:00:46;71.02;49.36;88.66;;
80580;Laerm;69939;52.402;6.608;2024-02-04T13:03:16;78.09;53.66;94.94;;
80580;Laerm;69939;52.402;6.608;2024-02-04T13:05:46;78.81;51.06;96.00;;
80580;Laerm;69939;52.402;6.608;2024-02-04T13:08:18;70.87;47.05;84.87;;
80580;Laerm;69939;52.402;6.608;2024-02-04T13:10:54;69.29;46.94;88.86;;
80580;Laerm;69939;52.402;6.608;2024-02-04T13:13:24;67.67;47.91;82.26;;
80580;Laerm;69939;52.402;6.608;2024-02-04T13:15:57;70.46;56.07;84.77;;
80580;Laerm;69939;52.402;6.608;2024-02-04T13:18:27;70.61;49.45;85.12;;
80580;Laerm;69939;52.402;6.608;2024-02-04T13:20:56;75.13;50.46;90.75;;
80580;Laerm;69939;52.402;6.608;2024-02-04T13:23:25;74.80;49.67;89.41;;
80580;Laerm;69939;52.402;6.608;2024-02-04T13:25:54;65.88;45.51;78.00;;
80580;Laerm;69939;52.402;6.608;2024-02-04T13:28:23;70.32;50.78;86.95;;
80580;Laerm;69939;52.402;6.608;2024-02-04T13:30:52;67.11;50.95;83.94;;
80580;Laerm;69939;52.402;6.608;2024-02-04T13:33:25;72.12;46.63;87.17;;
80580;Laerm;69939;52.402;6.608;2024-02-04T13:35:56;71.77;48.20;87.61;;
80580;Laerm;69939;52.402;6.608;2024-02-04T13:38:31;70.45;51.23;86.49;;
80580;Laerm;69939;52.402;6.608;2024-02-04T13:41:01;69.53;50.17;83.40;;
80580;Laerm;69939;52.402;6.608;2024-02-04T13:43:33;69.23;51.64;85.87;;
80580;Laerm;69939;52.402;6.608;2024-02-04T13:46:03;73.52;48.20;90.25;;
80580;Laerm;69939;52.402;6.608;2024-02-04T13:48:32;77.40;49.72;91.84;;
80580;Laerm;69939;52.402;6.608;2024-02-04T13:51:02;69.50;53.23;88.16;;
80580;Laerm;69939;52.402;6.608;2024-02-04T13:53:35;78.04;49.83;94.49;;
80580;Laerm;69939;52.402;6.608;2024-02-04T13:56:05;72.30;50.76;90.96;;
80580;Laerm;69939;52.402;6.608;2024-02-04T13:58:40;73.46;53.13;86.39;;
80580;Laerm;69939;52.402;6.608;2024-02-04T14:01:09;68.29;49.98;83.74;;
80580;Laerm;69939;52.402;6.608;2024-02-04T14:03:39;71.90;51.38;88.02;;
80580;Laerm;69939;52.402;6.608;2024-02-04T14:06:08;72.47;51.19;87.58;;
80580;Laerm;69939;52.402;6.608;2024-02-04T14:08:38;67.63;49.64;82.48;;